.
WxDataArchive / Data Records for 2014-08-03
2014-08-02 August 2014 2014-08-04

Data Records for Sunday, 03 August 2014

Time	Temp	Chill	HIndex	Humid	Dewpt	 Wind 	HiWind	WindDir	Rain 	Barom
-----	----	-----	------	-----	-----	------	------	-------	-----	-----
00:00	66.1	66.1	66.1	93	64.0	0	0	---	0.00	30.080 
00:05	66.0	66.0	66.0	93	63.9	0	0	---	0.00	30.080 
00:10	66.0	66.0	66.0	93	63.9	0	1	68	0.00	30.080 
00:15	65.8	65.8	65.8	93	63.7	0	0	---	0.00	30.081 
00:20	65.8	65.8	65.8	93	63.7	0	0	---	0.00	30.081 
00:25	65.8	65.8	65.8	94	64.0	0	0	---	0.00	30.081 
00:30	65.6	65.6	65.6	94	63.8	0	0	---	0.00	30.083 
00:35	65.6	65.6	65.6	94	63.8	0	0	---	0.00	30.083 
00:40	65.5	65.5	65.5	94	63.7	0	0	---	0.00	30.083 
00:45	65.3	65.3	65.3	94	63.5	0	0	---	0.00	30.084 
00:50	65.3	65.3	65.3	94	63.5	0	0	---	0.00	30.084 
00:55	65.2	65.2	65.2	94	63.4	0	0	---	0.00	30.084 
01:00	65.2	65.2	65.2	94	63.4	0	0	---	0.00	30.079 
01:05	65.0	65.0	65.0	94	63.2	0	0	---	0.00	30.079 
01:10	65.0	65.0	65.0	94	63.2	0	0	---	0.00	30.079 
01:15	64.8	64.8	64.8	94	63.0	0	0	---	0.00	30.080 
01:20	64.8	64.8	64.8	94	63.0	0	0	---	0.00	30.080 
01:25	64.8	64.8	64.8	94	63.0	0	0	---	0.00	30.080 
01:30	64.7	64.7	64.7	94	62.9	0	0	---	0.00	30.081 
01:35	64.7	64.7	64.7	94	62.9	0	0	---	0.00	30.081 
01:40	64.5	64.5	64.5	95	63.0	0	0	---	0.00	30.081 
01:45	64.5	64.5	64.5	95	63.0	0	0	---	0.00	30.081 
01:50	64.3	64.3	64.3	95	62.8	0	0	---	0.00	30.081 
01:55	64.2	64.2	64.2	95	62.7	0	0	---	0.00	30.081 
02:00	64.2	64.2	64.2	95	62.7	0	0	---	0.00	30.081 
02:05	64.2	64.2	64.2	95	62.7	0	0	---	0.00	30.081 
02:10	64.2	64.2	64.2	95	62.7	0	0	---	0.00	30.081 
02:15	64.2	64.2	64.2	95	62.7	0	0	---	0.00	30.082 
02:20	64.2	64.2	64.2	95	62.7	0	0	---	0.00	30.082 
02:25	64.0	64.0	64.0	95	62.5	0	0	---	0.00	30.082 
02:30	64.0	64.0	64.0	95	62.5	0	0	---	0.00	30.083 
02:35	63.9	63.9	63.9	95	62.4	0	0	---	0.00	30.083 
02:40	63.7	63.7	63.7	95	62.2	0	0	---	0.00	30.083 
02:45	63.5	63.5	63.5	95	62.0	0	0	---	0.00	30.083 
02:50	63.5	63.5	63.5	95	62.0	0	0	---	0.00	30.083 
02:55	63.4	63.4	63.4	95	61.9	0	0	---	0.00	30.083 
03:00	63.2	63.2	63.2	95	61.7	0	0	---	0.00	30.082 
03:05	63.2	63.2	63.2	95	61.7	0	0	---	0.00	30.082 
03:10	63.1	63.1	63.1	95	61.6	0	0	---	0.00	30.082 
03:15	63.1	63.1	63.1	95	61.6	0	0	---	0.00	30.084 
03:20	63.2	63.2	63.2	95	61.7	0	0	---	0.00	30.084 
03:25	63.2	63.2	63.2	95	61.7	0	0	---	0.00	30.084 
03:30	63.5	63.5	63.5	95	62.0	0	0	---	0.00	30.083 
03:35	63.5	63.5	63.5	95	62.0	0	0	---	0.00	30.083 
03:40	63.5	63.5	63.5	95	62.0	0	0	---	0.00	30.083 
03:45	63.4	63.4	63.4	95	61.9	0	0	---	0.00	30.084 
03:50	63.4	63.4	63.4	95	61.9	0	0	---	0.00	30.084 
03:55	63.2	63.2	63.2	95	61.7	0	0	---	0.00	30.084 
04:00	63.2	63.2	63.2	95	61.7	0	0	---	0.00	30.083 
04:05	63.1	63.1	63.1	95	61.6	0	0	---	0.00	30.083 
04:10	62.9	62.9	62.9	95	61.4	0	1	68	0.00	30.083 
04:15	62.9	62.9	62.9	95	61.4	0	0	---	0.00	30.079 
04:20	62.7	62.7	62.7	95	61.2	0	0	---	0.00	30.079 
04:25	62.7	62.7	62.7	95	61.2	0	0	---	0.00	30.079 
04:30	62.6	62.6	62.6	96	61.4	0	0	---	0.00	30.082 
04:35	62.3	62.3	62.3	95	60.8	0	0	---	0.00	30.082 
04:40	62.1	62.1	62.1	95	60.6	0	0	---	0.00	30.082 
04:45	62.1	62.1	62.1	96	60.9	0	0	---	0.00	30.085 
04:50	62.0	62.0	62.0	96	60.8	0	0	---	0.00	30.085 
04:55	61.8	61.8	61.8	96	60.6	0	0	---	0.00	30.085 
05:00	61.6	61.6	61.6	96	60.4	0	0	---	0.00	30.086 
05:05	61.5	61.5	61.5	96	60.3	0	0	---	0.00	30.086 
05:10	61.5	61.5	61.5	96	60.3	0	0	---	0.00	30.086 
05:15	61.3	61.3	61.3	96	60.1	0	0	---	0.00	30.087 
05:20	61.2	61.2	61.2	96	60.0	0	0	---	0.00	30.087 
05:25	61.2	61.2	61.2	96	60.0	0	0	---	0.00	30.087 
05:30	61.0	61.0	61.0	96	59.8	0	0	---	0.00	30.089 
05:35	61.0	61.0	61.0	96	59.8	0	0	---	0.00	30.089 
05:40	61.0	61.0	61.0	96	59.8	0	0	---	0.00	30.089 
05:45	61.0	61.0	61.0	96	59.8	0	0	---	0.00	30.089 
05:50	61.0	61.0	61.0	96	59.8	0	0	---	0.00	30.089 
05:55	60.9	60.9	60.9	96	59.7	0	0	---	0.00	30.089 
06:00	60.9	60.9	60.9	96	59.7	0	0	---	0.00	30.089 
06:05	60.9	60.9	60.9	96	59.7	0	1	68	0.00	30.089 
06:10	60.9	60.9	60.9	96	59.7	0	0	---	0.00	30.089 
06:15	60.9	60.9	60.9	96	59.7	0	0	---	0.00	30.095 
06:20	60.9	60.9	60.9	96	59.7	0	0	---	0.00	30.095 
06:25	60.7	60.7	60.7	96	59.6	0	0	---	0.00	30.095 
06:30	60.5	60.5	60.5	96	59.4	0	0	---	0.00	30.093 
06:35	60.5	60.5	60.5	96	59.4	0	0	---	0.00	30.093 
06:40	60.4	60.4	60.4	96	59.3	0	0	---	0.00	30.093 
06:45	60.1	60.1	60.1	96	59.0	0	0	---	0.00	30.098 
06:50	59.9	59.9	59.9	96	58.8	0	0	---	0.00	30.098 
06:55	59.8	59.8	59.8	96	58.7	0	0	---	0.00	30.098 
07:00	59.8	59.8	59.8	96	58.7	0	0	---	0.00	30.099 
07:05	59.8	59.8	59.8	96	58.7	0	0	---	0.00	30.099 
07:10	59.9	59.9	59.9	96	58.8	0	0	---	0.00	30.099 
07:15	59.9	59.9	59.9	96	58.8	0	0	---	0.00	30.101 
07:20	59.9	59.9	59.9	96	58.8	0	0	---	0.00	30.101 
07:25	59.9	59.9	59.9	96	58.8	0	0	---	0.00	30.101 
07:30	60.1	60.1	60.1	96	59.0	0	0	---	0.00	30.104 
07:35	60.2	60.2	60.2	96	59.1	0	0	---	0.00	30.104 
07:40	60.2	60.2	60.2	96	59.1	0	0	---	0.00	30.104 
07:45	60.4	60.4	60.4	96	59.3	0	0	---	0.00	30.106 
07:50	60.7	60.7	60.7	96	59.6	0	0	---	0.00	30.106 
07:55	60.9	60.9	60.9	96	59.7	0	0	---	0.00	30.106 
08:00	61.0	61.0	61.0	96	59.8	0	0	---	0.00	30.106 
08:05	61.3	61.3	61.3	96	60.1	0	0	---	0.00	30.106 
08:10	61.5	61.5	61.5	96	60.3	0	0	---	0.00	30.106 
08:15	61.6	61.6	61.6	96	60.4	0	0	---	0.00	30.107 
08:20	62.0	62.0	62.0	96	60.8	0	0	---	0.00	30.107 
08:25	62.1	62.1	62.1	96	60.9	0	0	---	0.00	30.107 
08:30	62.6	62.6	62.6	96	61.4	0	0	---	0.00	30.108 
08:35	62.7	62.7	62.7	96	61.5	0	0	---	0.00	30.108 
08:40	63.1	63.1	63.1	96	61.9	0	0	---	0.00	30.108 
08:45	63.7	63.7	63.7	96	62.5	0	0	---	0.00	30.110 
08:50	64.3	64.3	64.3	96	63.1	0	0	---	0.00	30.110 
08:55	64.5	64.5	64.5	95	63.0	0	0	---	0.00	30.110 
09:00	64.5	64.5	64.5	94	62.7	0	1	68	0.00	30.114 
09:05	64.8	64.8	64.8	93	62.7	0	1	68	0.00	30.114 
09:10	65.3	65.3	65.3	92	62.9	0	2	68	0.00	30.114 
09:15	66.0	66.0	66.0	90	63.0	0	1	68	0.00	30.118 
09:20	66.6	66.6	66.6	89	63.3	0	1	68	0.00	30.118 
09:25	67.1	67.1	67.1	86	62.8	0	1	68	0.00	30.118 
09:30	67.6	67.6	67.6	84	62.6	0	2	315	0.00	30.117 
09:35	67.9	67.9	67.9	81	61.8	0	1	315	0.00	30.117 
09:40	68.1	68.1	68.1	77	60.6	0	2	315	0.00	30.117 
09:45	68.6	68.6	68.6	75	60.3	0	1	315	0.00	30.117 
09:50	69.3	69.3	69.3	75	61.0	0	1	315	0.00	30.117 
09:55	69.8	69.8	69.8	74	61.1	0	1	315	0.00	30.117 
10:00	70.1	70.1	70.1	70	59.8	1	2	315	0.00	30.120 
10:05	70.8	70.8	70.8	71	60.9	0	2	315	0.00	30.120 
10:10	71.1	71.1	71.1	66	59.2	0	2	315	0.00	30.120 
10:15	71.5	71.5	71.5	64	58.7	1	2	315	0.00	30.120 
10:20	72.0	72.0	72.0	65	59.6	0	2	315	0.00	30.120 
10:25	72.5	72.5	72.5	64	59.6	1	2	315	0.00	30.120 
10:30	72.8	72.8	72.8	59	57.6	1	4	315	0.00	30.117 
10:35	73.2	73.2	73.2	58	57.5	2	3	270	0.00	30.117 
10:40	73.5	73.5	73.5	58	57.8	1	4	292	0.00	30.117 
10:45	74.0	74.0	74.0	59	58.7	1	2	292	0.00	30.116 
10:50	74.4	74.4	74.4	58	58.6	1	4	292	0.00	30.116 
10:55	74.6	74.6	74.6	55	57.3	1	3	292	0.00	30.116 
11:00	74.7	74.7	74.7	55	57.4	2	4	292	0.00	30.118 
11:05	75.1	75.1	77.6	55	57.8	1	3	338	0.00	30.118 
11:10	75.4	75.4	77.7	58	59.6	1	3	338	0.00	30.118 
11:15	75.6	75.6	77.8	55	58.3	1	3	292	0.00	30.117 
11:20	76.0	76.0	78.1	55	58.6	1	4	292	0.00	30.117 
11:25	76.1	76.1	78.1	54	58.2	1	4	292	0.00	30.117 
11:30	76.3	76.3	78.3	56	59.4	1	4	315	0.00	30.115 
11:35	76.8	76.8	78.6	55	59.4	0	4	315	0.00	30.115 
11:40	77.2	77.2	78.8	52	58.2	1	4	315	0.00	30.115 
11:45	77.2	77.2	78.8	52	58.2	1	3	315	0.00	30.114 
11:50	77.2	77.2	78.8	53	58.7	2	4	292	0.00	30.114 
11:55	77.4	77.4	78.9	53	58.9	1	3	292	0.00	30.114 
12:00	77.4	77.4	78.8	50	57.3	2	3	292	0.00	30.120 
12:05	77.4	77.4	78.8	50	57.3	1	5	315	0.00	30.120 
12:10	77.6	77.6	79.1	53	59.1	1	4	315	0.00	30.120 
12:15	78.1	78.1	79.5	53	59.6	1	3	315	0.00	30.116 
12:20	78.3	78.3	79.6	53	59.7	1	4	270	0.00	30.116 
12:25	78.3	78.3	79.6	52	59.2	1	4	315	0.00	30.116 
12:30	78.6	78.6	79.7	51	58.9	1	2	315	0.00	30.113 
12:35	79.0	79.0	80.0	51	59.3	2	4	315	0.00	30.113 
12:40	78.8	78.8	79.8	50	58.6	2	4	292	0.00	30.113 
12:45	78.8	78.8	79.7	49	58.0	2	4	270	0.00	30.110 
12:50	78.8	78.8	79.9	52	59.7	1	3	292	0.00	30.110 
12:55	79.0	79.0	80.0	50	58.7	2	5	292	0.00	30.110 
13:00	79.0	79.0	80.0	50	58.7	1	7	292	0.00	30.103 
13:05	79.0	79.0	80.1	52	59.8	1	3	315	0.00	30.103 
13:10	79.2	79.2	80.1	50	58.9	2	5	338	0.00	30.103 
13:15	79.2	79.2	79.9	47	57.2	1	5	338	0.00	30.097 
13:20	79.2	79.2	79.9	47	57.2	1	5	338	0.00	30.097 
13:25	79.4	79.4	80.1	48	58.0	1	3	0	0.00	30.097 
13:30	79.4	79.4	80.1	47	57.4	1	4	0	0.00	30.096 
13:35	79.8	79.8	80.5	48	58.3	1	4	0	0.00	30.096 
13:40	80.1	80.1	80.4	45	56.8	1	4	338	0.00	30.096 
13:45	80.1	80.1	80.3	44	56.2	2	5	338	0.00	30.095 
13:50	80.3	80.3	80.9	48	58.8	1	4	315	0.00	30.095 
13:55	80.5	80.5	81.0	48	59.0	1	4	0	0.00	30.095 
14:00	80.9	80.9	81.3	47	58.8	1	3	0	0.00	30.094 
14:05	81.1	81.1	81.1	44	57.1	2	5	270	0.00	30.094 
14:10	81.1	81.1	81.4	46	58.3	2	5	315	0.00	30.094 
14:15	81.1	81.1	81.4	46	58.3	1	3	338	0.00	30.092 
14:20	80.7	80.7	80.8	44	56.7	2	4	292	0.00	30.092 
14:25	80.7	80.7	80.8	44	56.7	2	5	292	0.00	30.092 
14:30	80.9	80.9	80.8	42	55.6	1	5	315	0.00	30.091 
14:35	81.2	81.2	81.1	43	56.5	1	2	315	0.00	30.091 
14:40	82.0	82.0	81.9	44	57.9	1	4	270	0.00	30.091 
14:45	82.2	82.2	82.3	45	58.7	1	4	22	0.00	30.079 
14:50	82.2	82.2	82.0	43	57.4	1	5	0	0.00	30.079 
14:55	81.8	81.8	81.2	39	54.4	1	4	338	0.00	30.079 
15:00	81.8	81.8	81.1	38	53.7	2	5	338	0.00	30.076 
15:05	82.0	82.0	81.8	43	57.3	1	4	315	0.00	30.076 
15:10	82.4	82.4	81.9	41	56.3	0	2	315	0.00	30.076 
15:15	82.6	82.6	82.1	41	56.5	1	3	315	0.00	30.060 
15:20	82.4	82.4	81.3	36	52.7	3	6	315	0.00	30.060 
15:25	82.2	82.2	81.2	36	52.6	2	5	292	0.00	30.060 
15:30	82.4	82.4	81.8	40	55.6	1	3	292	0.00	30.063 
15:35	82.8	82.8	82.0	39	55.3	1	3	292	0.00	30.063 
15:40	83.0	83.0	81.8	36	53.3	1	4	292	0.00	30.063 
15:45	83.4	83.4	82.6	39	55.8	0	2	315	0.00	30.056 
15:50	83.6	83.6	82.1	34	52.2	1	5	135	0.00	30.056 
15:55	83.4	83.4	82.1	35	52.8	1	3	22	0.00	30.056 
16:00	83.6	83.6	82.5	37	54.5	0	2	22	0.00	30.054 
16:05	83.8	83.8	82.9	39	56.2	1	4	22	0.00	30.054 
16:10	83.8	83.8	82.9	39	56.2	1	5	90	0.00	30.054 
16:15	83.8	83.8	83.1	40	56.9	0	2	135	0.00	30.046 
16:20	83.8	83.8	82.5	36	54.0	1	4	135	0.00	30.046 
16:25	83.6	83.6	82.6	38	55.3	1	4	292	0.00	30.046 
16:30	83.6	83.6	82.8	39	56.0	0	2	270	0.00	30.047 
16:35	83.6	83.6	82.2	35	53.0	0	2	270	0.00	30.047 
16:40	83.4	83.4	81.9	34	52.1	2	5	338	0.00	30.047 
16:45	82.8	82.8	81.8	37	53.8	1	4	338	0.00	30.048 
16:50	83.0	83.0	82.1	38	54.7	0	2	338	0.00	30.048 
16:55	83.4	83.4	81.8	33	51.2	0	2	338	0.00	30.048 
17:00	83.4	83.4	81.7	32	50.4	1	3	68	0.00	30.048 
17:05	83.4	83.4	81.9	34	52.1	1	3	270	0.00	30.048 
17:10	83.4	83.4	81.9	34	52.1	1	3	315	0.00	30.048 
17:15	83.4	83.4	81.8	33	51.2	1	4	315	0.00	30.047 
17:20	83.4	83.4	81.6	31	49.6	1	3	315	0.00	30.047 
17:25	83.6	83.6	82.1	34	52.2	2	4	315	0.00	30.047 
17:30	83.4	83.4	81.8	33	51.2	1	3	315	0.00	30.044 
17:35	83.4	83.4	81.8	33	51.2	1	2	315	0.00	30.044 
17:40	83.4	83.4	82.1	35	52.8	0	3	90	0.00	30.044 
17:45	83.6	83.6	82.0	33	51.4	0	2	90	0.00	30.042 
17:50	83.8	83.8	82.3	34	52.4	0	1	90	0.00	30.042 
17:55	84.0	84.0	82.5	34	52.6	1	2	90	0.00	30.042 
18:00	83.6	83.6	82.0	33	51.4	1	3	270	0.00	30.036 
18:05	83.2	83.2	82.1	37	54.2	0	1	270	0.00	30.036 
18:10	82.8	82.8	81.8	37	53.8	0	2	270	0.00	30.036 
18:15	82.4	82.4	81.4	37	53.5	0	2	270	0.00	30.035 
18:20	82.4	82.4	81.4	37	53.5	0	2	270	0.00	30.035 
18:25	82.2	82.2	81.3	37	53.3	0	1	270	0.00	30.035 
18:30	82.2	82.2	81.5	39	54.7	0	1	270	0.00	30.038 
18:35	82.2	82.2	81.6	40	55.4	1	4	270	0.00	30.038 
18:40	82.2	82.2	81.4	38	54.0	1	3	292	0.00	30.038 
18:45	82.2	82.2	81.3	37	53.3	1	5	292	0.00	30.035 
18:50	82.2	82.2	81.3	37	53.3	1	3	292	0.00	30.035 
18:55	82.0	82.0	81.2	38	53.9	0	1	292	0.00	30.035 
19:00	81.8	81.8	81.1	38	53.7	0	1	292	0.00	30.034 
19:05	81.8	81.8	81.2	39	54.4	0	0	---	0.00	30.034 
19:10	81.8	81.8	81.2	39	54.4	0	1	292	0.00	30.034 
19:15	81.6	81.6	80.8	37	52.8	0	1	292	0.00	30.034 
19:20	81.6	81.6	81.0	39	54.2	0	2	292	0.00	30.034 
19:25	81.6	81.6	80.8	37	52.8	0	2	292	0.00	30.034 
19:30	81.6	81.6	81.1	40	54.9	0	1	292	0.00	30.036 
19:35	81.4	81.4	81.0	40	54.7	0	1	292	0.00	30.036 
19:40	81.4	81.4	81.3	43	56.7	0	0	---	0.00	30.036 
19:45	81.1	81.1	81.1	44	57.1	0	0	---	0.00	30.037 
19:50	80.9	80.9	80.7	41	55.0	0	0	---	0.00	30.037 
19:55	80.5	80.5	80.5	42	55.3	0	0	---	0.00	30.037 
20:00	80.3	80.3	80.4	43	55.7	0	0	---	0.00	30.037 
20:05	80.1	80.1	80.3	44	56.2	0	0	---	0.00	30.037 
20:10	79.8	79.8	80.1	44	55.9	0	0	---	0.00	30.037 
20:15	79.6	79.6	80.1	46	57.0	0	0	---	0.00	30.032 
20:20	79.2	79.2	79.7	44	55.4	0	0	---	0.00	30.032 
20:25	79.0	79.0	79.8	47	57.0	0	0	---	0.00	30.032 
20:30	78.6	78.6	79.5	47	56.7	0	0	---	0.00	30.033 
20:35	78.3	78.3	79.3	48	57.0	0	0	---	0.00	30.033 
20:40	77.7	77.7	79.0	49	57.0	0	0	---	0.00	30.033 
20:45	77.2	77.2	78.7	50	57.1	0	0	---	0.00	30.041 
20:50	76.8	76.8	78.5	50	56.7	0	0	---	0.00	30.041 
20:55	76.3	76.3	78.2	51	56.8	0	0	---	0.00	30.041 
21:00	75.6	75.6	77.9	53	57.2	0	0	---	0.00	30.040 
21:05	75.1	75.1	77.6	55	57.8	0	0	---	0.00	30.040 
21:10	74.6	74.6	74.6	57	58.3	0	0	---	0.00	30.040 
21:15	74.0	74.0	74.0	58	58.3	0	0	---	0.00	30.045 
21:20	73.5	73.5	73.5	59	58.3	0	0	---	0.00	30.045 
21:25	73.0	73.0	73.0	60	58.3	0	0	---	0.00	30.045 
21:30	72.7	72.7	72.7	61	58.5	0	0	---	0.00	30.048 
21:35	72.3	72.3	72.3	62	58.5	0	0	---	0.00	30.048 
21:40	72.0	72.0	72.0	63	58.7	0	0	---	0.00	30.048 
21:45	71.6	71.6	71.6	64	58.8	0	0	---	0.00	30.050 
21:50	71.3	71.3	71.3	65	58.9	0	0	---	0.00	30.050 
21:55	70.9	70.9	70.9	66	59.0	0	0	---	0.00	30.050 
22:00	70.8	70.8	70.8	67	59.3	0	0	---	0.00	30.054 
22:05	70.4	70.4	70.4	68	59.3	0	0	---	0.00	30.054 
22:10	70.1	70.1	70.1	68	59.0	0	0	---	0.00	30.054 
22:15	69.9	69.9	69.9	70	59.7	0	0	---	0.00	30.055 
22:20	69.6	69.6	69.6	70	59.4	0	0	---	0.00	30.055 
22:25	69.4	69.4	69.4	71	59.6	0	0	---	0.00	30.055 
22:30	69.3	69.3	69.3	72	59.9	0	0	---	0.00	30.049 
22:35	69.1	69.1	69.1	73	60.1	0	0	---	0.00	30.049 
22:40	68.8	68.8	68.8	73	59.8	0	0	---	0.00	30.049 
22:45	68.6	68.6	68.6	73	59.6	0	0	---	0.00	30.052 
22:50	68.4	68.4	68.4	73	59.4	0	0	---	0.00	30.052 
22:55	68.3	68.3	68.3	74	59.7	0	0	---	0.00	30.052 
23:00	68.1	68.1	68.1	75	59.9	0	0	---	0.00	30.053 
23:05	67.9	67.9	67.9	74	59.3	0	0	---	0.00	30.053 
23:10	67.6	67.6	67.6	74	59.0	0	0	---	0.00	30.053 
23:15	67.4	67.4	67.4	74	58.8	0	0	---	0.00	30.049 
23:20	67.1	67.1	67.1	75	58.9	0	0	---	0.00	30.049 
23:25	66.9	66.9	66.9	76	59.1	0	0	---	0.00	30.049 
23:30	66.8	66.8	66.8	77	59.3	0	0	---	0.00	30.051 
23:35	66.6	66.6	66.6	78	59.5	0	0	---	0.00	30.051 
23:40	66.4	66.4	66.4	79	59.7	0	0	---	0.00	30.051 
23:45	66.3	66.3	66.3	80	59.9	0	0	---	0.00	30.053 
23:50	66.1	66.1	66.1	80	59.7	0	0	---	0.00	30.053 
23:55	66.0	66.0	66.0	80	59.6	0	0	---	0.00	30.053 

CoCoRaHS
IN-AL-39
A2 Web Hosting
Creative Commons License
GoDaddy
search engine by freefind advanced

loaded 2018-11-17 12:26:26 • last modified 2010-11-18 10:43:29
Privacy PolicyDisclaimer
• wx.awcolley.com is powered by PmWiki v.2002016 •
• all content (unless otherwise noted) © 2018 A W Colley